sensor_id;sensor_type;location;lat;lon;timestamp;temperature;humidity
431;DHT22;202;48.764;9.172;2022-09-16T00:02:54;17.60;58.70
431;DHT22;202;48.764;9.172;2022-09-16T00:06:15;17.70;58.60
431;DHT22;202;48.764;9.172;2022-09-16T00:08:57;17.80;58.30
431;DHT22;202;48.764;9.172;2022-09-16T00:14:46;17.70;58.40
431;DHT22;202;48.764;9.172;2022-09-16T00:17:32;17.70;58.40
431;DHT22;202;48.764;9.172;2022-09-16T00:25:18;17.60;58.80
431;DHT22;202;48.764;9.172;2022-09-16T00:34:04;17.50;60.90
431;DHT22;202;48.764;9.172;2022-09-16T00:36:57;17.50;61.60
431;DHT22;202;48.764;9.172;2022-09-16T00:43:52;17.50;64.30
431;DHT22;202;48.764;9.172;2022-09-16T00:50:11;17.30;62.60
431;DHT22;202;48.764;9.172;2022-09-16T00:52:42;17.40;62.60
431;DHT22;202;48.764;9.172;2022-09-16T00:55:27;17.40;63.00
431;DHT22;202;48.764;9.172;2022-09-16T01:01:36;17.30;62.60
431;DHT22;202;48.764;9.172;2022-09-16T01:04:07;17.30;64.70
431;DHT22;202;48.764;9.172;2022-09-16T01:06:52;17.20;64.30
431;DHT22;202;48.764;9.172;2022-09-16T01:09:30;17.20;64.70
431;DHT22;202;48.764;9.172;2022-09-16T01:12:15;17.20;64.30
431;DHT22;202;48.764;9.172;2022-09-16T01:15:02;17.20;63.80
431;DHT22;202;48.764;9.172;2022-09-16T01:18:10;17.20;64.20
431;DHT22;202;48.764;9.172;2022-09-16T01:21:20;17.20;63.90
431;DHT22;202;48.764;9.172;2022-09-16T01:34:20;17.20;62.80
431;DHT22;202;48.764;9.172;2022-09-16T01:37:00;17.20;63.10
431;DHT22;202;48.764;9.172;2022-09-16T01:39:52;17.20;63.70
431;DHT22;202;48.764;9.172;2022-09-16T01:42:46;17.10;64.60
431;DHT22;202;48.764;9.172;2022-09-16T01:48:36;17.10;65.20
431;DHT22;202;48.764;9.172;2022-09-16T01:51:17;17.10;66.20
431;DHT22;202;48.764;9.172;2022-09-16T01:57:20;17.00;65.30
431;DHT22;202;48.764;9.172;2022-09-16T02:00:15;16.90;66.10
431;DHT22;202;48.764;9.172;2022-09-16T02:02:49;16.90;63.20
431;DHT22;202;48.764;9.172;2022-09-16T02:08:34;16.80;64.70
431;DHT22;202;48.764;9.172;2022-09-16T02:11:09;16.70;65.80
431;DHT22;202;48.764;9.172;2022-09-16T02:14:12;16.80;61.80
431;DHT22;202;48.764;9.172;2022-09-16T02:16:50;16.60;61.70
431;DHT22;202;48.764;9.172;2022-09-16T02:19:47;16.60;61.70
431;DHT22;202;48.764;9.172;2022-09-16T02:22:50;16.50;62.80
431;DHT22;202;48.764;9.172;2022-09-16T02:25:45;16.50;63.30
431;DHT22;202;48.764;9.172;2022-09-16T02:29:15;16.60;61.60
431;DHT22;202;48.764;9.172;2022-09-16T02:31:41;16.60;59.50
431;DHT22;202;48.764;9.172;2022-09-16T02:34:52;16.60;59.30
431;DHT22;202;48.764;9.172;2022-09-16T02:37:58;16.60;59.20
431;DHT22;202;48.764;9.172;2022-09-16T02:43:53;16.50;59.10
431;DHT22;202;48.764;9.172;2022-09-16T02:47:00;16.50;61.80
431;DHT22;202;48.764;9.172;2022-09-16T02:52:58;16.50;60.10
431;DHT22;202;48.764;9.172;2022-09-16T02:55:37;16.50;59.10
431;DHT22;202;48.764;9.172;2022-09-16T02:58:27;16.60;59.20
431;DHT22;202;48.764;9.172;2022-09-16T03:01:20;16.60;57.30
431;DHT22;202;48.764;9.172;2022-09-16T03:03:56;16.50;58.00
431;DHT22;202;48.764;9.172;2022-09-16T03:06:28;16.50;59.10
431;DHT22;202;48.764;9.172;2022-09-16T03:09:16;16.50;58.90
431;DHT22;202;48.764;9.172;2022-09-16T03:12:43;16.40;59.90
431;DHT22;202;48.764;9.172;2022-09-16T03:15:32;16.50;59.10
431;DHT22;202;48.764;9.172;2022-09-16T03:21:16;16.50;59.70
431;DHT22;202;48.764;9.172;2022-09-16T03:26:55;16.40;59.00
431;DHT22;202;48.764;9.172;2022-09-16T03:29:34;16.40;59.00
431;DHT22;202;48.764;9.172;2022-09-16T03:32:17;16.40;57.90
431;DHT22;202;48.764;9.172;2022-09-16T03:35:03;16.40;59.00
431;DHT22;202;48.764;9.172;2022-09-16T03:38:01;16.40;59.00
431;DHT22;202;48.764;9.172;2022-09-16T03:40:37;16.40;57.20
431;DHT22;202;48.764;9.172;2022-09-16T03:43:38;16.40;57.90
431;DHT22;202;48.764;9.172;2022-09-16T03:46:17;16.30;57.30
431;DHT22;202;48.764;9.172;2022-09-16T03:48:44;16.30;58.90
431;DHT22;202;48.764;9.172;2022-09-16T03:51:13;16.30;59.00
431;DHT22;202;48.764;9.172;2022-09-16T03:53:42;16.20;60.30
431;DHT22;202;48.764;9.172;2022-09-16T03:56:16;16.20;59.50
431;DHT22;202;48.764;9.172;2022-09-16T03:58:47;16.20;58.90
431;DHT22;202;48.764;9.172;2022-09-16T04:01:14;16.00;60.70
431;DHT22;202;48.764;9.172;2022-09-16T04:03:41;16.00;60.70
431;DHT22;202;48.764;9.172;2022-09-16T04:06:08;15.90;61.80
431;DHT22;202;48.764;9.172;2022-09-16T04:08:41;16.00;61.50
431;DHT22;202;48.764;9.172;2022-09-16T04:11:09;16.00;61.40
431;DHT22;202;48.764;9.172;2022-09-16T04:13:36;16.00;63.50
431;DHT22;202;48.764;9.172;2022-09-16T04:16:06;16.00;62.00
431;DHT22;202;48.764;9.172;2022-09-16T04:18:33;16.10;63.10
431;DHT22;202;48.764;9.172;2022-09-16T04:21:02;16.10;61.40
431;DHT22;202;48.764;9.172;2022-09-16T04:23:31;16.10;60.00
431;DHT22;202;48.764;9.172;2022-09-16T04:26:02;16.10;58.80
431;DHT22;202;48.764;9.172;2022-09-16T04:28:32;16.20;58.90
431;DHT22;202;48.764;9.172;2022-09-16T04:31:00;16.20;57.70
431;DHT22;202;48.764;9.172;2022-09-16T04:33:28;16.20;58.90
431;DHT22;202;48.764;9.172;2022-09-16T04:36:01;16.20;58.90
431;DHT22;202;48.764;9.172;2022-09-16T04:38:29;16.20;58.00
431;DHT22;202;48.764;9.172;2022-09-16T04:40:59;16.30;58.60
431;DHT22;202;48.764;9.172;2022-09-16T04:43:28;16.30;58.90
431;DHT22;202;48.764;9.172;2022-09-16T04:45:55;16.30;58.90
431;DHT22;202;48.764;9.172;2022-09-16T04:48:22;16.30;58.90
431;DHT22;202;48.764;9.172;2022-09-16T04:50:49;16.30;62.20
431;DHT22;202;48.764;9.172;2022-09-16T04:53:16;16.30;63.80
431;DHT22;202;48.764;9.172;2022-09-16T04:55:43;16.30;66.00
431;DHT22;202;48.764;9.172;2022-09-16T04:58:13;16.30;67.10
431;DHT22;202;48.764;9.172;2022-09-16T05:00:42;16.20;67.00
431;DHT22;202;48.764;9.172;2022-09-16T05:03:09;16.30;66.00
431;DHT22;202;48.764;9.172;2022-09-16T05:05:36;16.20;67.90
431;DHT22;202;48.764;9.172;2022-09-16T05:08:04;16.30;67.20
431;DHT22;202;48.764;9.172;2022-09-16T05:10:34;16.20;68.70
431;DHT22;202;48.764;9.172;2022-09-16T05:13:01;16.30;64.70
431;DHT22;202;48.764;9.172;2022-09-16T05:15:28;16.30;67.70
431;DHT22;202;48.764;9.172;2022-09-16T05:17:56;16.30;68.80
431;DHT22;202;48.764;9.172;2022-09-16T05:27:30;16.20;69.90
431;DHT22;202;48.764;9.172;2022-09-16T05:31:59;16.10;72.70
431;DHT22;202;48.764;9.172;2022-09-16T06:39:00;15.60;79.80
431;DHT22;202;48.764;9.172;2022-09-16T06:41:27;15.70;78.70
431;DHT22;202;48.764;9.172;2022-09-16T06:43:56;15.60;77.80
431;DHT22;202;48.764;9.172;2022-09-16T06:46:25;15.60;77.80
431;DHT22;202;48.764;9.172;2022-09-16T06:48:53;15.70;77.90
431;DHT22;202;48.764;9.172;2022-09-16T06:51:22;15.70;77.30
431;DHT22;202;48.764;9.172;2022-09-16T06:53:51;15.70;80.00
431;DHT22;202;48.764;9.172;2022-09-16T06:56:20;15.70;80.00
431;DHT22;202;48.764;9.172;2022-09-16T06:58:49;15.70;78.80
431;DHT22;202;48.764;9.172;2022-09-16T07:01:19;15.70;79.30
431;DHT22;202;48.764;9.172;2022-09-16T07:03:47;15.60;79.20
431;DHT22;202;48.764;9.172;2022-09-16T07:06:15;15.60;80.40
431;DHT22;202;48.764;9.172;2022-09-16T07:08:42;15.60;77.80
431;DHT22;202;48.764;9.172;2022-09-16T07:11:11;15.50;81.50
431;DHT22;202;48.764;9.172;2022-09-16T07:13:40;15.50;81.10
431;DHT22;202;48.764;9.172;2022-09-16T07:16:09;15.60;81.50
431;DHT22;202;48.764;9.172;2022-09-16T07:18:36;15.60;83.10
431;DHT22;202;48.764;9.172;2022-09-16T07:21:04;15.50;84.80
431;DHT22;202;48.764;9.172;2022-09-16T07:23:33;15.50;82.70
431;DHT22;202;48.764;9.172;2022-09-16T07:26:01;15.50;83.00
431;DHT22;202;48.764;9.172;2022-09-16T07:28:29;15.50;82.40
431;DHT22;202;48.764;9.172;2022-09-16T07:30:59;15.50;82.40
431;DHT22;202;48.764;9.172;2022-09-16T07:33:26;15.50;82.50
431;DHT22;202;48.764;9.172;2022-09-16T07:35:57;15.50;85.60
431;DHT22;202;48.764;9.172;2022-09-16T07:38:28;15.50;85.00
431;DHT22;202;48.764;9.172;2022-09-16T07:40:55;15.50;85.70
431;DHT22;202;48.764;9.172;2022-09-16T07:43:22;15.40;87.90
431;DHT22;202;48.764;9.172;2022-09-16T07:45:54;15.40;86.70
431;DHT22;202;48.764;9.172;2022-09-16T07:48:23;15.40;86.70
431;DHT22;202;48.764;9.172;2022-09-16T07:51:07;15.40;88.50
431;DHT22;202;48.764;9.172;2022-09-16T07:53:47;15.30;90.00
431;DHT22;202;48.764;9.172;2022-09-16T07:56:30;15.20;90.60
431;DHT22;202;48.764;9.172;2022-09-16T07:59:31;14.90;86.50
431;DHT22;202;48.764;9.172;2022-09-16T08:02:07;15.00;88.50
431;DHT22;202;48.764;9.172;2022-09-16T08:11:11;15.10;90.80
431;DHT22;202;48.764;9.172;2022-09-16T08:14:02;15.10;90.80
431;DHT22;202;48.764;9.172;2022-09-16T08:19:54;15.20;90.60
431;DHT22;202;48.764;9.172;2022-09-16T08:22:47;15.30;87.20
431;DHT22;202;48.764;9.172;2022-09-16T08:25:47;15.20;87.50
431;DHT22;202;48.764;9.172;2022-09-16T08:29:18;15.30;86.90
431;DHT22;202;48.764;9.172;2022-09-16T08:33:18;15.40;86.10
431;DHT22;202;48.764;9.172;2022-09-16T08:51:16;15.00;91.30
431;DHT22;202;48.764;9.172;2022-09-16T08:54:02;15.00;92.60
431;DHT22;202;48.764;9.172;2022-09-16T08:56:40;15.20;91.40
431;DHT22;202;48.764;9.172;2022-09-16T08:59:45;15.20;87.70
431;DHT22;202;48.764;9.172;2022-09-16T09:46:07;15.80;80.80
431;DHT22;202;48.764;9.172;2022-09-16T09:49:07;15.90;78.10
431;DHT22;202;48.764;9.172;2022-09-16T10:11:02;15.90;74.90
431;DHT22;202;48.764;9.172;2022-09-16T10:17:23;15.90;77.10
431;DHT22;202;48.764;9.172;2022-09-16T10:23:55;16.00;77.70
431;DHT22;202;48.764;9.172;2022-09-16T10:30:25;16.00;72.40
431;DHT22;202;48.764;9.172;2022-09-16T10:33:12;16.00;75.30
431;DHT22;202;48.764;9.172;2022-09-16T10:36:02;16.00;74.60
431;DHT22;202;48.764;9.172;2022-09-16T10:49:00;15.90;78.50
431;DHT22;202;48.764;9.172;2022-09-16T10:51:51;16.00;76.00
431;DHT22;202;48.764;9.172;2022-09-16T10:54:26;16.10;72.60
431;DHT22;202;48.764;9.172;2022-09-16T10:57:29;16.20;74.20
431;DHT22;202;48.764;9.172;2022-09-16T11:00:10;16.20;74.70
431;DHT22;202;48.764;9.172;2022-09-16T11:06:15;16.00;75.50
431;DHT22;202;48.764;9.172;2022-09-16T11:09:00;16.00;78.10
431;DHT22;202;48.764;9.172;2022-09-16T11:12:03;16.00;75.60
431;DHT22;202;48.764;9.172;2022-09-16T11:14:55;16.10;73.50
431;DHT22;202;48.764;9.172;2022-09-16T11:27:36;16.10;71.90
431;DHT22;202;48.764;9.172;2022-09-16T11:30:11;16.10;70.20
431;DHT22;202;48.764;9.172;2022-09-16T11:36:13;16.20;70.50
431;DHT22;202;48.764;9.172;2022-09-16T11:38:51;16.20;72.50
431;DHT22;202;48.764;9.172;2022-09-16T11:41:29;16.20;66.70
431;DHT22;202;48.764;9.172;2022-09-16T11:44:21;16.20;68.70
431;DHT22;202;48.764;9.172;2022-09-16T11:47:03;16.20;68.70
431;DHT22;202;48.764;9.172;2022-09-16T11:49:46;16.20;70.10
431;DHT22;202;48.764;9.172;2022-09-16T11:52:40;16.30;67.60
431;DHT22;202;48.764;9.172;2022-09-16T11:55:19;16.30;65.10
431;DHT22;202;48.764;9.172;2022-09-16T11:57:53;16.40;63.90
431;DHT22;202;48.764;9.172;2022-09-16T12:00:21;16.50;64.90
431;DHT22;202;48.764;9.172;2022-09-16T12:02:55;16.50;64.00
431;DHT22;202;48.764;9.172;2022-09-16T12:05:28;16.60;61.70
431;DHT22;202;48.764;9.172;2022-09-16T12:08:05;16.60;60.70
431;DHT22;202;48.764;9.172;2022-09-16T12:10:38;16.60;61.10
431;DHT22;202;48.764;9.172;2022-09-16T12:13:13;16.60;59.20
431;DHT22;202;48.764;9.172;2022-09-16T12:15:44;16.80;58.20
431;DHT22;202;48.764;9.172;2022-09-16T12:18:16;16.70;55.60
431;DHT22;202;48.764;9.172;2022-09-16T12:20:52;16.80;56.80
431;DHT22;202;48.764;9.172;2022-09-16T12:23:23;16.80;57.00
431;DHT22;202;48.764;9.172;2022-09-16T12:26:00;16.80;57.40
431;DHT22;202;48.764;9.172;2022-09-16T12:28:35;16.80;54.60
431;DHT22;202;48.764;9.172;2022-09-16T12:31:10;16.80;51.00
431;DHT22;202;48.764;9.172;2022-09-16T12:33:42;16.70;53.10
431;DHT22;202;48.764;9.172;2022-09-16T12:36:12;16.80;54.10
431;DHT22;202;48.764;9.172;2022-09-16T12:38:41;16.80;54.50
431;DHT22;202;48.764;9.172;2022-09-16T12:41:18;16.90;52.60
431;DHT22;202;48.764;9.172;2022-09-16T12:44:19;16.90;50.50
431;DHT22;202;48.764;9.172;2022-09-16T12:47:11;16.90;49.90
431;DHT22;202;48.764;9.172;2022-09-16T12:50:12;16.90;50.20
431;DHT22;202;48.764;9.172;2022-09-16T12:52:59;16.90;51.10
431;DHT22;202;48.764;9.172;2022-09-16T12:55:52;17.00;51.00
431;DHT22;202;48.764;9.172;2022-09-16T13:01:24;17.00;49.90
431;DHT22;202;48.764;9.172;2022-09-16T13:06:28;16.90;49.80
431;DHT22;202;48.764;9.172;2022-09-16T13:09:16;17.00;51.10
431;DHT22;202;48.764;9.172;2022-09-16T13:12:03;17.00;51.30
431;DHT22;202;48.764;9.172;2022-09-16T13:15:02;17.00;51.00
431;DHT22;202;48.764;9.172;2022-09-16T13:18:06;17.10;50.00
431;DHT22;202;48.764;9.172;2022-09-16T13:25:06;16.90;49.80
431;DHT22;202;48.764;9.172;2022-09-16T13:50:00;17.60;45.50
431;DHT22;202;48.764;9.172;2022-09-16T13:52:40;17.50;46.40
431;DHT22;202;48.764;9.172;2022-09-16T13:55:26;17.60;44.70
431;DHT22;202;48.764;9.172;2022-09-16T13:58:04;17.60;43.60
431;DHT22;202;48.764;9.172;2022-09-16T14:01:12;17.70;44.40
431;DHT22;202;48.764;9.172;2022-09-16T14:03:58;17.80;43.40
431;DHT22;202;48.764;9.172;2022-09-16T14:07:03;17.80;44.10
431;DHT22;202;48.764;9.172;2022-09-16T14:09:58;17.70;42.60
431;DHT22;202;48.764;9.172;2022-09-16T14:12:46;17.80;43.90
431;DHT22;202;48.764;9.172;2022-09-16T14:15:32;17.90;42.80
431;DHT22;202;48.764;9.172;2022-09-16T14:18:44;17.90;42.40
431;DHT22;202;48.764;9.172;2022-09-16T16:19:58;18.10;38.80
431;DHT22;202;48.764;9.172;2022-09-16T20:48:43;13.70;72.30
431;DHT22;202;48.764;9.172;2022-09-16T20:51:12;13.70;72.30
431;DHT22;202;48.764;9.172;2022-09-16T20:53:40;13.70;71.40
431;DHT22;202;48.764;9.172;2022-09-16T20:56:11;13.70;70.40
431;DHT22;202;48.764;9.172;2022-09-16T20:58:39;13.70;71.20
431;DHT22;202;48.764;9.172;2022-09-16T21:01:10;13.70;69.90
431;DHT22;202;48.764;9.172;2022-09-16T21:03:38;13.70;72.20
431;DHT22;202;48.764;9.172;2022-09-16T21:06:08;13.60;72.70
431;DHT22;202;48.764;9.172;2022-09-16T21:08:35;13.60;72.00
431;DHT22;202;48.764;9.172;2022-09-16T21:11:06;13.60;69.80
431;DHT22;202;48.764;9.172;2022-09-16T21:13:36;13.70;69.00
431;DHT22;202;48.764;9.172;2022-09-16T21:16:05;13.60;70.20
431;DHT22;202;48.764;9.172;2022-09-16T21:18:32;13.60;67.90
431;DHT22;202;48.764;9.172;2022-09-16T21:21:04;13.60;65.60
431;DHT22;202;48.764;9.172;2022-09-16T21:23:34;13.60;67.00
431;DHT22;202;48.764;9.172;2022-09-16T21:26:02;13.60;68.60
431;DHT22;202;48.764;9.172;2022-09-16T21:28:29;13.60;67.90
431;DHT22;202;48.764;9.172;2022-09-16T21:31:01;13.60;67.70
431;DHT22;202;48.764;9.172;2022-09-16T21:33:29;13.60;66.70
431;DHT22;202;48.764;9.172;2022-09-16T21:35:57;13.60;66.60
431;DHT22;202;48.764;9.172;2022-09-16T21:38:26;13.50;67.10
431;DHT22;202;48.764;9.172;2022-09-16T21:40:56;13.50;66.10
431;DHT22;202;48.764;9.172;2022-09-16T21:43:24;13.60;66.20
431;DHT22;202;48.764;9.172;2022-09-16T21:45:52;13.60;65.90
431;DHT22;202;48.764;9.172;2022-09-16T21:48:19;13.60;63.30
431;DHT22;202;48.764;9.172;2022-09-16T21:50:47;13.60;64.50
431;DHT22;202;48.764;9.172;2022-09-16T21:53:15;13.40;63.90
431;DHT22;202;48.764;9.172;2022-09-16T21:55:42;13.40;66.00
431;DHT22;202;48.764;9.172;2022-09-16T21:58:10;13.40;66.00
431;DHT22;202;48.764;9.172;2022-09-16T22:00:38;13.40;66.00
431;DHT22;202;48.764;9.172;2022-09-16T22:03:06;13.40;66.00
431;DHT22;202;48.764;9.172;2022-09-16T22:05:33;13.30;65.90
431;DHT22;202;48.764;9.172;2022-09-16T22:08:00;13.20;65.80
431;DHT22;202;48.764;9.172;2022-09-16T22:10:28;13.10;66.00
431;DHT22;202;48.764;9.172;2022-09-16T22:12:54;13.10;66.10
431;DHT22;202;48.764;9.172;2022-09-16T22:15:23;13.10;68.50
431;DHT22;202;48.764;9.172;2022-09-16T22:17:50;13.20;66.40
431;DHT22;202;48.764;9.172;2022-09-16T22:20:20;13.20;67.20
431;DHT22;202;48.764;9.172;2022-09-16T22:22:48;13.20;67.00
431;DHT22;202;48.764;9.172;2022-09-16T22:25:15;13.20;65.80
431;DHT22;202;48.764;9.172;2022-09-16T22:27:43;13.20;65.80
431;DHT22;202;48.764;9.172;2022-09-16T22:30:10;13.30;65.90
431;DHT22;202;48.764;9.172;2022-09-16T22:32:39;13.20;67.20
431;DHT22;202;48.764;9.172;2022-09-16T22:35:07;13.20;66.20
431;DHT22;202;48.764;9.172;2022-09-16T22:37:34;13.20;68.10
431;DHT22;202;48.764;9.172;2022-09-16T22:40:02;13.10;67.10
431;DHT22;202;48.764;9.172;2022-09-16T22:42:29;13.10;67.10
431;DHT22;202;48.764;9.172;2022-09-16T22:44:56;13.10;67.20
431;DHT22;202;48.764;9.172;2022-09-16T22:47:23;13.20;65.80
431;DHT22;202;48.764;9.172;2022-09-16T22:49:51;13.20;66.00
431;DHT22;202;48.764;9.172;2022-09-16T22:52:18;13.20;66.20
431;DHT22;202;48.764;9.172;2022-09-16T22:54:45;13.20;65.80
431;DHT22;202;48.764;9.172;2022-09-16T22:57:18;13.10;65.70
431;DHT22;202;48.764;9.172;2022-09-16T22:59:46;13.10;68.50
431;DHT22;202;48.764;9.172;2022-09-16T23:02:14;13.00;68.40
431;DHT22;202;48.764;9.172;2022-09-16T23:04:47;13.00;67.80
431;DHT22;202;48.764;9.172;2022-09-16T23:07:30;13.00;68.30
431;DHT22;202;48.764;9.172;2022-09-16T23:09:59;13.00;65.60
431;DHT22;202;48.764;9.172;2022-09-16T23:12:43;13.00;65.60
431;DHT22;202;48.764;9.172;2022-09-16T23:15:33;13.10;68.00
431;DHT22;202;48.764;9.172;2022-09-16T23:18:09;13.00;66.30
431;DHT22;202;48.764;9.172;2022-09-16T23:23:59;13.00;67.80
431;DHT22;202;48.764;9.172;2022-09-16T23:26:31;12.90;66.90
431;DHT22;202;48.764;9.172;2022-09-16T23:29:06;12.80;68.20
431;DHT22;202;48.764;9.172;2022-09-16T23:31:47;12.90;67.40
431;DHT22;202;48.764;9.172;2022-09-16T23:34:20;12.80;68.00
431;DHT22;202;48.764;9.172;2022-09-16T23:36:52;12.80;68.70
431;DHT22;202;48.764;9.172;2022-09-16T23:39:29;12.70;68.40
431;DHT22;202;48.764;9.172;2022-09-16T23:41:57;12.70;69.10
431;DHT22;202;48.764;9.172;2022-09-16T23:44:23;12.60;69.30
431;DHT22;202;48.764;9.172;2022-09-16T23:46:51;12.60;68.90
431;DHT22;202;48.764;9.172;2022-09-16T23:49:19;12.70;68.30
431;DHT22;202;48.764;9.172;2022-09-16T23:51:58;12.70;69.00
431;DHT22;202;48.764;9.172;2022-09-16T23:54:30;12.60;69.20
431;DHT22;202;48.764;9.172;2022-09-16T23:56:57;12.60;68.40
431;DHT22;202;48.764;9.172;2022-09-16T23:59:31;12.60;68.90
